Time;durP1;ratioP1;P1;durP2;ratioP2;P2;SDS_P1;SDS_P2;PMS_P1;PMS_P2;Temp;Humidity;BMP_temperature;BMP_pressure;BME280_temperature;BME280_humidity;BME280_pressure;Samples;Min_cycle;Max_cycle;Signal;HPM_P1;HPM_P2
2022/06/29 00:02:24;;;;;;;8.85;3.13;;;;;;;;;;6250554;22;20017;-80
2022/06/29 00:04:51;;;;;;;7.18;3.22;;;;;;;;;;6249862;22;20770;-80
2022/06/29 00:07:18;;;;;;;4.55;2.90;;;;;;;;;;6250374;22;20079;-80
2022/06/29 00:09:45;;;;;;;9.13;3.38;;;;;;;;;;6249775;22;20024;-80
2022/06/29 00:12:12;;;;;;;6.20;3.30;;;;;;;;;;6250906;22;20025;-81
2022/06/29 00:14:42;;;;;;;7.15;3.10;;;;;;;;;;6250644;22;20017;-80
2022/06/29 00:17:17;;;;;;;7.75;3.17;;;;;;;;;;6249345;22;20890;-80
2022/06/29 00:19:44;;;;;;;4.10;2.90;;;;;;;;;;6250026;22;20035;-80
2022/06/29 00:22:11;;;;;;;9.85;3.30;;;;;;;;;;6249080;22;20028;-81
2022/06/29 00:24:38;;;;;;;8.90;3.50;;;;;;;;;;6249856;22;20021;-80
2022/06/29 00:27:05;;;;;;;9.80;3.20;;;;;;;;;;6249785;22;20021;-80
2022/06/29 00:29:33;;;;;;;5.95;2.95;;;;;;;;;;6249352;22;20025;-82
2022/06/29 00:32:00;;;;;;;6.13;3.30;;;;;;;;;;6249146;22;20059;-81
2022/06/29 00:34:27;;;;;;;5.20;3.25;;;;;;;;;;6250032;22;20025;-82
2022/06/29 00:36:54;;;;;;;6.18;3.20;;;;;;;;;;6249416;22;20021;-82
2022/06/29 00:39:21;;;;;;;7.22;3.22;;;;;;;;;;6249672;22;20029;-81
2022/06/29 00:41:48;;;;;;;4.93;3.20;;;;;;;;;;6248597;22;20139;-81
2022/06/29 00:44:17;;;;;;;8.60;3.65;;;;;;;;;;6249523;22;20071;-81
2022/06/29 00:46:48;;;;;;;5.63;3.22;;;;;;;;;;6249103;22;20016;-81
2022/06/29 00:49:18;;;;;;;6.28;3.25;;;;;;;;;;6249806;22;20035;-82
2022/06/29 00:51:46;;;;;;;14.05;3.70;;;;;;;;;;6249958;22;20024;-81
2022/06/29 00:54:15;;;;;;;7.65;3.30;;;;;;;;;;6250202;22;20021;-81
2022/06/29 00:56:43;;;;;;;9.23;3.42;;;;;;;;;;6250620;22;20051;-81
2022/06/29 00:59:12;;;;;;;10.23;3.45;;;;;;;;;;6249224;22;20029;-81
2022/06/29 01:01:43;;;;;;;6.70;3.20;;;;;;;;;;6249486;22;20013;-81
2022/06/29 01:04:11;;;;;;;5.07;3.08;;;;;;;;;;6250359;22;20079;-81
2022/06/29 01:06:38;;;;;;;8.30;3.50;;;;;;;;;;6249418;22;20055;-81
2022/06/29 01:09:06;;;;;;;6.25;3.85;;;;;;;;;;6250825;22;20024;-81
2022/06/29 01:11:33;;;;;;;10.00;5.10;;;;;;;;;;6250691;22;20019;-81
2022/06/29 01:14:01;;;;;;;9.07;5.05;;;;;;;;;;6251242;22;20111;-81
2022/06/29 01:16:28;;;;;;;9.25;5.10;;;;;;;;;;6250620;22;20020;-81
2022/06/29 01:18:55;;;;;;;6.53;4.85;;;;;;;;;;6250880;22;20033;-80
2022/06/29 01:21:23;;;;;;;7.18;4.47;;;;;;;;;;6251184;22;20020;-81
2022/06/29 01:23:50;;;;;;;6.07;4.28;;;;;;;;;;6250887;22;20025;-81
2022/06/29 01:26:17;;;;;;;7.60;4.22;;;;;;;;;;6251595;22;20728;-80
2022/06/29 01:28:47;;;;;;;7.13;4.15;;;;;;;;;;6251727;22;20836;-82
2022/06/29 01:31:15;;;;;;;6.72;4.10;;;;;;;;;;6251310;22;20025;-81
2022/06/29 01:33:42;;;;;;;6.60;3.58;;;;;;;;;;6250918;22;20681;-81
2022/06/29 01:36:10;;;;;;;5.50;3.90;;;;;;;;;;6251339;22;20100;-81
2022/06/29 01:38:37;;;;;;;7.00;4.20;;;;;;;;;;6251140;22;20864;-81
2022/06/29 01:41:05;;;;;;;9.82;3.70;;;;;;;;;;6250856;22;20028;-80
2022/06/29 01:43:32;;;;;;;5.38;3.25;;;;;;;;;;6224719;22;20020;-81
2022/06/29 01:45:59;;;;;;;7.20;3.50;;;;;;;;;;6250316;22;20561;-81
2022/06/29 01:48:26;;;;;;;6.15;3.38;;;;;;;;;;6251246;22;20032;-81
2022/06/29 01:50:54;;;;;;;4.95;2.92;;;;;;;;;;6251223;22;20012;-81
2022/06/29 01:53:21;;;;;;;6.47;3.42;;;;;;;;;;6251845;22;20025;-81
2022/06/29 01:55:48;;;;;;;5.47;3.40;;;;;;;;;;6250684;22;20458;-81
2022/06/29 01:58:15;;;;;;;8.55;3.33;;;;;;;;;;6251370;22;20083;-81
2022/06/29 02:00:43;;;;;;;9.77;3.67;;;;;;;;;;6250822;22;20031;-84
2022/06/29 02:03:10;;;;;;;4.25;3.50;;;;;;;;;;6250877;22;20023;-81
2022/06/29 02:05:37;;;;;;;5.95;3.35;;;;;;;;;;6251224;22;20060;-80
2022/06/29 02:08:05;;;;;;;7.03;3.50;;;;;;;;;;6251142;22;20029;-81
2022/06/29 02:10:32;;;;;;;5.95;3.58;;;;;;;;;;6250411;22;20758;-81
2022/06/29 02:13:00;;;;;;;7.32;3.50;;;;;;;;;;6250442;22;20031;-80
2022/06/29 02:15:27;;;;;;;6.93;3.42;;;;;;;;;;6250242;22;20108;-80
2022/06/29 02:17:54;;;;;;;7.30;3.47;;;;;;;;;;6250625;22;20072;-81
2022/06/29 02:20:21;;;;;;;6.75;3.20;;;;;;;;;;6250795;22;20024;-81
2022/06/29 02:22:48;;;;;;;6.90;3.55;;;;;;;;;;6249968;22;20021;-81
2022/06/29 02:25:15;;;;;;;5.82;3.67;;;;;;;;;;6250887;22;20052;-81
2022/06/29 02:27:45;;;;;;;6.15;3.35;;;;;;;;;;6250471;22;20825;-81
2022/06/29 02:30:13;;;;;;;8.90;3.42;;;;;;;;;;6250346;22;20028;-80
2022/06/29 02:35:27;;;;;;;6.63;3.53;;;;;;;;;;6250382;22;20055;-81
2022/06/29 02:37:56;;;;;;;7.18;3.65;;;;;;;;;;6250068;22;20024;-81
2022/06/29 02:40:23;;;;;;;5.18;3.40;;;;;;;;;;6250131;22;20103;-81
2022/06/29 02:42:51;;;;;;;5.07;3.00;;;;;;;;;;6250450;22;20728;-81
2022/06/29 02:45:33;;;;;;;5.53;3.33;;;;;;;;;;6249716;22;20164;-81
2022/06/29 02:48:00;;;;;;;8.45;3.55;;;;;;;;;;6250657;22;20044;-81
2022/06/29 02:50:27;;;;;;;4.85;3.70;;;;;;;;;;6250343;22;20105;-81
2022/06/29 02:52:54;;;;;;;5.78;3.80;;;;;;;;;;6250496;22;20031;-81
2022/06/29 02:55:22;;;;;;;4.45;3.13;;;;;;;;;;6250103;22;20017;-81
2022/06/29 02:57:49;;;;;;;8.55;3.95;;;;;;;;;;6251548;22;20465;-81
2022/06/29 03:00:16;;;;;;;5.82;3.53;;;;;;;;;;6251094;22;20860;-81
2022/06/29 03:02:43;;;;;;;17.33;4.00;;;;;;;;;;6250638;22;20025;-81
2022/06/29 03:05:10;;;;;;;6.47;3.83;;;;;;;;;;6250247;22;20024;-81
2022/06/29 03:07:38;;;;;;;8.73;4.00;;;;;;;;;;6249715;22;20119;-80
2022/06/29 03:10:05;;;;;;;5.95;3.60;;;;;;;;;;6249312;22;20462;-81
2022/06/29 03:12:32;;;;;;;7.10;4.00;;;;;;;;;;6250024;22;20020;-82
2022/06/29 03:14:59;;;;;;;7.00;3.67;;;;;;;;;;6250229;22;20100;-81
2022/06/29 03:17:26;;;;;;;7.15;3.30;;;;;;;;;;6250129;22;20035;-81
2022/06/29 03:19:53;;;;;;;4.78;2.80;;;;;;;;;;6249669;22;20809;-80
2022/06/29 03:22:20;;;;;;;6.43;3.25;;;;;;;;;;6250459;22;20108;-81
2022/06/29 03:24:48;;;;;;;5.30;3.58;;;;;;;;;;6249605;22;20088;-81
2022/06/29 03:27:15;;;;;;;6.75;3.45;;;;;;;;;;6249759;22;20031;-81
2022/06/29 03:29:42;;;;;;;5.35;3.22;;;;;;;;;;6249678;22;20020;-81
2022/06/29 03:32:09;;;;;;;7.10;3.47;;;;;;;;;;6222309;22;20017;-81
2022/06/29 03:34:36;;;;;;;4.18;3.10;;;;;;;;;;6249268;22;20025;-81
2022/06/29 03:37:03;;;;;;;4.60;3.20;;;;;;;;;;6250075;22;20481;-80
2022/06/29 03:39:30;;;;;;;4.82;3.00;;;;;;;;;;6250002;22;20033;-80
2022/06/29 03:41:57;;;;;;;6.35;3.42;;;;;;;;;;6249983;22;20096;-81
2022/06/29 03:44:24;;;;;;;4.40;3.20;;;;;;;;;;6249842;22;20031;-81
2022/06/29 03:46:51;;;;;;;5.50;3.10;;;;;;;;;;6249467;22;20060;-81
2022/06/29 03:49:18;;;;;;;7.72;3.50;;;;;;;;;;6250206;22;20024;-81
2022/06/29 03:51:46;;;;;;;8.05;3.50;;;;;;;;;;6224381;22;20021;-80
2022/06/29 03:54:13;;;;;;;6.95;3.70;;;;;;;;;;6251236;22;20031;-81
2022/06/29 03:56:40;;;;;;;5.90;3.63;;;;;;;;;;6250765;22;20021;-81
2022/06/29 03:59:07;;;;;;;4.85;3.70;;;;;;;;;;6248391;22;20393;-80
2022/06/29 04:01:34;;;;;;;6.30;3.30;;;;;;;;;;6249214;22;20048;-82
2022/06/29 04:04:01;;;;;;;8.10;3.10;;;;;;;;;;6249043;22;20067;-81
2022/06/29 04:06:28;;;;;;;6.28;3.80;;;;;;;;;;6249373;22;20047;-81
2022/06/29 04:08:55;;;;;;;7.30;3.35;;;;;;;;;;6249710;22;20024;-81
2022/06/29 04:14:08;;;;;;;6.70;3.65;;;;;;;;;;6249673;22;20063;-81
2022/06/29 04:16:36;;;;;;;8.88;3.50;;;;;;;;;;6249620;22;20047;-81
2022/06/29 04:19:03;;;;;;;10.18;3.95;;;;;;;;;;6249419;22;20469;-81
2022/06/29 04:21:30;;;;;;;8.02;3.20;;;;;;;;;;6249100;22;20025;-82
2022/06/29 04:23:57;;;;;;;5.00;3.65;;;;;;;;;;6248414;22;20100;-80
2022/06/29 04:26:24;;;;;;;8.93;3.40;;;;;;;;;;6249159;22;20029;-81
2022/06/29 04:28:51;;;;;;;4.53;3.38;;;;;;;;;;6249299;22;20025;-81
2022/06/29 04:31:18;;;;;;;8.27;3.83;;;;;;;;;;6222526;22;20021;-80
2022/06/29 04:33:47;;;;;;;6.13;3.90;;;;;;;;;;6248774;22;20020;-80
2022/06/29 04:36:14;;;;;;;7.22;3.88;;;;;;;;;;6249405;22;20032;-81
2022/06/29 04:38:41;;;;;;;11.10;3.78;;;;;;;;;;6248885;22;20031;-80
2022/06/29 04:41:08;;;;;;;8.52;3.65;;;;;;;;;;6249286;22;20025;-81
2022/06/29 04:43:37;;;;;;;5.80;3.35;;;;;;;;;;6250460;22;20028;-80
2022/06/29 04:46:20;;;;;;;9.48;3.70;;;;;;;;;;6250302;22;20025;-81
2022/06/29 04:48:48;;;;;;;4.45;3.50;;;;;;;;;;6249979;22;20083;-80
2022/06/29 04:51:18;;;;;;;7.28;3.80;;;;;;;;;;6250712;22;20820;-81
2022/06/29 04:53:46;;;;;;;7.07;4.10;;;;;;;;;;6250327;22;20032;-82
2022/06/29 04:56:14;;;;;;;7.85;4.10;;;;;;;;;;6250065;22;20512;-81
2022/06/29 04:58:41;;;;;;;10.73;4.07;;;;;;;;;;6250296;22;20024;-81
2022/06/29 05:01:08;;;;;;;7.55;4.00;;;;;;;;;;6223323;22;20017;-81
2022/06/29 05:03:36;;;;;;;9.57;4.78;;;;;;;;;;6250915;22;20021;-81
2022/06/29 05:06:03;;;;;;;5.75;3.75;;;;;;;;;;6250480;22;20804;-81
2022/06/29 05:08:30;;;;;;;5.57;3.70;;;;;;;;;;6223549;22;20059;-81
2022/06/29 05:10:57;;;;;;;6.93;4.00;;;;;;;;;;6250248;22;20043;-80
2022/06/29 05:13:24;;;;;;;6.07;3.65;;;;;;;;;;6249943;22;20050;-81
2022/06/29 05:15:55;;;;;;;7.50;3.92;;;;;;;;;;6250459;22;20032;-82
2022/06/29 05:18:22;;;;;;;8.73;4.00;;;;;;;;;;6250571;22;20486;-81
2022/06/29 05:20:55;;;;;;;6.30;4.32;;;;;;;;;;6250543;22;20028;-81
2022/06/29 05:23:22;;;;;;;8.20;4.30;;;;;;;;;;6250001;22;20095;-81
2022/06/29 05:25:50;;;;;;;6.25;4.30;;;;;;;;;;6250144;22;20048;-81
2022/06/29 05:28:17;;;;;;;6.68;4.65;;;;;;;;;;6250278;22;20027;-81
2022/06/29 05:30:44;;;;;;;7.63;4.20;;;;;;;;;;6250839;22;20027;-81
2022/06/29 05:33:11;;;;;;;9.60;4.55;;;;;;;;;;6250564;22;20055;-82
2022/06/29 05:35:38;;;;;;;7.93;4.78;;;;;;;;;;6250356;22;20087;-82
2022/06/29 05:38:05;;;;;;;10.55;4.97;;;;;;;;;;6249686;22;20017;-81
2022/06/29 05:40:32;;;;;;;8.68;5.70;;;;;;;;;;6249836;22;20028;-81
2022/06/29 05:42:59;;;;;;;7.97;4.88;;;;;;;;;;6250864;22;20103;-81
2022/06/29 05:45:27;;;;;;;11.02;5.15;;;;;;;;;;6224404;22;20024;-81
2022/06/29 05:47:54;;;;;;;6.55;4.95;;;;;;;;;;6250885;22;20754;-81
2022/06/29 05:50:22;;;;;;;7.28;4.47;;;;;;;;;;6250446;22;20063;-81
2022/06/29 05:52:50;;;;;;;8.05;4.80;;;;;;;;;;6250584;22;20079;-81
2022/06/29 05:55:17;;;;;;;7.65;4.57;;;;;;;;;;6250307;22;20115;-82
2022/06/29 05:57:45;;;;;;;9.60;4.88;;;;;;;;;;6251349;22;20025;-80
2022/06/29 06:00:13;;;;;;;7.32;4.72;;;;;;;;;;6250555;22;20032;-81
2022/06/29 06:02:40;;;;;;;6.47;4.63;;;;;;;;;;6250483;22;20020;-81
2022/06/29 06:05:08;;;;;;;8.57;5.00;;;;;;;;;;6250827;22;20064;-80
2022/06/29 06:07:35;;;;;;;12.98;5.00;;;;;;;;;;6223776;22;20020;-80
2022/06/29 06:10:03;;;;;;;8.70;4.72;;;;;;;;;;6248774;22;20096;-82
2022/06/29 06:12:31;;;;;;;9.27;5.07;;;;;;;;;;6249210;22;20040;-84
2022/06/29 06:14:59;;;;;;;8.50;5.00;;;;;;;;;;6249183;22;20024;-84
2022/06/29 06:17:26;;;;;;;9.60;4.47;;;;;;;;;;6221563;22;20028;-83
2022/06/29 06:20:01;;;;;;;9.30;4.93;;;;;;;;;;6223938;22;20446;-83
2022/06/29 06:22:35;;;;;;;9.43;4.15;;;;;;;;;;6222956;22;20013;-83
2022/06/29 06:25:06;;;;;;;5.70;4.05;;;;;;;;;;6248899;22;20040;-83
2022/06/29 06:27:33;;;;;;;6.88;4.10;;;;;;;;;;6221587;22;20785;-84
2022/06/29 06:30:00;;;;;;;10.75;3.70;;;;;;;;;;6222036;22;20856;-83
2022/06/29 06:32:28;;;;;;;8.07;4.10;;;;;;;;;;6222399;22;20029;-84
2022/06/29 06:34:56;;;;;;;9.80;4.00;;;;;;;;;;6248798;22;20095;-83
2022/06/29 06:37:24;;;;;;;8.88;4.00;;;;;;;;;;6249440;22;20025;-84
2022/06/29 06:42:37;;;;;;;7.00;3.60;;;;;;;;;;6249812;22;20028;-84
2022/06/29 06:45:05;;;;;;;10.20;3.45;;;;;;;;;;6224550;22;20080;-84
2022/06/29 06:47:33;;;;;;;5.35;3.20;;;;;;;;;;6250385;22;20748;-84
2022/06/29 06:50:01;;;;;;;9.80;3.17;;;;;;;;;;6226491;22;20016;-84
2022/06/29 06:52:29;;;;;;;7.28;3.30;;;;;;;;;;6229320;22;20020;-84
2022/06/29 06:54:57;;;;;;;8.43;3.08;;;;;;;;;;6250735;22;20024;-84
2022/06/29 06:57:25;;;;;;;5.60;3.13;;;;;;;;;;6249279;22;20033;-84
2022/06/29 06:59:53;;;;;;;5.80;2.85;;;;;;;;;;6249304;22;20055;-83
2022/06/29 07:02:22;;;;;;;8.57;2.92;;;;;;;;;;6250031;22;20031;-84
2022/06/29 07:04:49;;;;;;;8.35;3.22;;;;;;;;;;6250394;22;20024;-85
2022/06/29 07:07:19;;;;;;;6.65;3.00;;;;;;;;;;6223316;22;20027;-84
2022/06/29 07:09:47;;;;;;;6.43;2.92;;;;;;;;;;6222810;22;20097;-84
2022/06/29 07:13:04;;;;;;;5.40;3.08;;;;;;;;;;6223706;22;20023;-84
2022/06/29 07:15:31;;;;;;;5.57;3.17;;;;;;;;;;6222370;22;20012;-84
2022/06/29 07:17:59;;;;;;;8.07;3.58;;;;;;;;;;6221657;22;20017;-84
2022/06/29 07:20:28;;;;;;;5.18;2.83;;;;;;;;;;6221779;22;20020;-84
2022/06/29 07:23:03;;;;;;;7.47;3.03;;;;;;;;;;6221697;22;20029;-84
2022/06/29 07:25:30;;;;;;;6.93;2.92;;;;;;;;;;6222218;22;20033;-85
2022/06/29 07:27:57;;;;;;;7.13;3.45;;;;;;;;;;6221819;22;20023;-85
2022/06/29 07:30:25;;;;;;;5.57;2.90;;;;;;;;;;6221821;22;20025;-85
2022/06/29 07:32:52;;;;;;;4.50;2.33;;;;;;;;;;6221473;22;20075;-85
2022/06/29 07:35:29;;;;;;;6.15;2.60;;;;;;;;;;6222404;22;20541;-85
2022/06/29 07:37:56;;;;;;;6.80;2.55;;;;;;;;;;6222140;22;20025;-86
2022/06/29 07:40:28;;;;;;;5.97;2.50;;;;;;;;;;6222294;22;20039;-85
2022/06/29 07:42:57;;;;;;;4.68;2.55;;;;;;;;;;6221628;22;20012;-83
2022/06/29 07:45:25;;;;;;;6.80;2.90;;;;;;;;;;6222773;22;20462;-83
2022/06/29 07:48:00;;;;;;;9.15;2.60;;;;;;;;;;6223586;22;20020;-83
2022/06/29 07:50:31;;;;;;;7.13;2.70;;;;;;;;;;6221827;22;20039;-83
2022/06/29 07:53:16;;;;;;;4.63;2.45;;;;;;;;;;6221427;22;20016;-84
2022/06/29 07:55:48;;;;;;;5.75;2.50;;;;;;;;;;6221653;22;20123;-82
2022/06/29 07:58:16;;;;;;;4.82;2.22;;;;;;;;;;6221891;22;20470;-82
2022/06/29 08:00:44;;;;;;;7.20;2.80;;;;;;;;;;6221927;22;20051;-84
2022/06/29 08:03:12;;;;;;;6.13;2.58;;;;;;;;;;6222016;22;20096;-84
2022/06/29 08:05:47;;;;;;;7.05;2.50;;;;;;;;;;6223903;22;20021;-84
2022/06/29 08:08:16;;;;;;;6.00;2.13;;;;;;;;;;6221858;22;20059;-82
2022/06/29 08:10:44;;;;;;;5.78;2.42;;;;;;;;;;6221593;22;20017;-82
2022/06/29 08:13:19;;;;;;;5.78;2.40;;;;;;;;;;6221795;22;20013;-84
2022/06/29 08:15:48;;;;;;;5.28;2.80;;;;;;;;;;6222239;22;20032;-82
2022/06/29 08:18:17;;;;;;;6.93;2.67;;;;;;;;;;6223389;22;20473;-84
2022/06/29 08:20:44;;;;;;;5.05;2.58;;;;;;;;;;6222547;22;20710;-82
2022/06/29 08:23:15;;;;;;;8.48;2.20;;;;;;;;;;6223560;22;20863;-85
2022/06/29 08:25:42;;;;;;;7.15;2.72;;;;;;;;;;6223748;22;20090;-82
2022/06/29 08:28:30;;;;;;;5.70;2.22;;;;;;;;;;6227305;22;20020;-84
2022/06/29 08:31:00;;;;;;;4.43;2.40;;;;;;;;;;6222767;22;20858;-82
2022/06/29 08:33:28;;;;;;;5.45;2.45;;;;;;;;;;6222317;22;20512;-82
2022/06/29 08:35:56;;;;;;;5.78;2.42;;;;;;;;;;6222960;22;20025;-83
2022/06/29 08:38:23;;;;;;;4.50;2.60;;;;;;;;;;6222558;22;20013;-85
2022/06/29 08:40:56;;;;;;;5.38;2.80;;;;;;;;;;6222918;22;20355;-86
2022/06/29 08:43:30;;;;;;;5.18;2.65;;;;;;;;;;6223059;22;20336;-84
2022/06/29 08:45:58;;;;;;;6.43;2.65;;;;;;;;;;6222780;22;20055;-84
2022/06/29 08:48:28;;;;;;;5.35;2.58;;;;;;;;;;6223058;22;20103;-85
2022/06/29 08:50:57;;;;;;;10.90;2.75;;;;;;;;;;6222890;22;20027;-84
2022/06/29 08:53:24;;;;;;;6.75;2.85;;;;;;;;;;6222822;22;20088;-84
2022/06/29 08:55:55;;;;;;;5.63;2.53;;;;;;;;;;6222050;22;20024;-84
2022/06/29 08:58:24;;;;;;;8.98;2.95;;;;;;;;;;6222079;22;20017;-83
2022/06/29 09:00:53;;;;;;;4.85;2.97;;;;;;;;;;6228255;22;20024;-85
2022/06/29 09:03:21;;;;;;;5.38;2.50;;;;;;;;;;6252571;22;20067;-84
2022/06/29 09:05:50;;;;;;;8.43;2.10;;;;;;;;;;6223750;22;20444;-84
2022/06/29 09:08:19;;;;;;;4.00;2.05;;;;;;;;;;6223003;22;20024;-85
2022/06/29 09:10:47;;;;;;;4.90;2.33;;;;;;;;;;6249166;22;20084;-83
2022/06/29 09:13:24;;;;;;;6.32;2.30;;;;;;;;;;6222716;22;20857;-84
2022/06/29 09:16:02;;;;;;;8.02;2.40;;;;;;;;;;6224683;22;20024;-81
2022/06/29 09:18:33;;;;;;;5.63;2.00;;;;;;;;;;6223938;22;20020;-81
2022/06/29 09:21:10;;;;;;;6.50;1.90;;;;;;;;;;6226151;22;20087;-82
2022/06/29 09:23:37;;;;;;;4.35;2.03;;;;;;;;;;6225179;22;20840;-82
2022/06/29 09:26:04;;;;;;;4.88;2.08;;;;;;;;;;6226141;22;20040;-81
2022/06/29 09:28:32;;;;;;;4.50;1.70;;;;;;;;;;6252421;22;20055;-80
2022/06/29 09:30:59;;;;;;;10.38;2.15;;;;;;;;;;6253166;22;20797;-82
2022/06/29 09:33:28;;;;;;;6.65;1.75;;;;;;;;;;6253084;22;20148;-82
2022/06/29 09:36:17;;;;;;;3.20;1.90;;;;;;;;;;6225873;22;20036;-80
2022/06/29 09:38:44;;;;;;;8.43;1.90;;;;;;;;;;6253973;22;20020;-81
2022/06/29 09:41:13;;;;;;;5.70;2.05;;;;;;;;;;6253389;22;20090;-79
2022/06/29 09:43:41;;;;;;;6.10;1.80;;;;;;;;;;6253088;22;20052;-81
2022/06/29 09:46:10;;;;;;;5.22;1.90;;;;;;;;;;6226506;22;20033;-79
2022/06/29 09:48:38;;;;;;;6.90;2.08;;;;;;;;;;6253112;22;20078;-80
2022/06/29 09:53:55;;;;;;;7.13;1.77;;;;;;;;;;6258045;22;20032;-81
2022/06/29 09:56:22;;;;;;;3.85;1.80;;;;;;;;;;6256243;22;20009;-81
2022/06/29 09:58:50;;;;;;;4.43;1.75;;;;;;;;;;6225750;22;20107;-80
2022/06/29 10:04:10;;;;;;;4.30;1.70;;;;;;;;;;6253865;22;20118;-80
2022/06/29 10:06:38;;;;;;;3.45;1.50;;;;;;;;;;6252903;22;20024;-80
2022/06/29 10:09:06;;;;;;;3.58;1.63;;;;;;;;;;6224509;22;20023;-79
2022/06/29 10:14:34;;;;;;;7.95;1.95;;;;;;;;;;6250380;22;20021;-79
2022/06/29 10:17:07;;;;;;;3.05;1.50;;;;;;;;;;6224578;22;20509;-79
2022/06/29 10:19:39;;;;;;;6.03;1.85;;;;;;;;;;6250769;22;20056;-79
2022/06/29 10:22:06;;;;;;;5.30;1.83;;;;;;;;;;6250903;22;20035;-79
2022/06/29 10:24:37;;;;;;;3.63;1.70;;;;;;;;;;6251534;22;20651;-81
2022/06/29 10:27:07;;;;;;;9.63;2.00;;;;;;;;;;6251548;22;20068;-81
2022/06/29 10:29:35;;;;;;;4.28;1.83;;;;;;;;;;6251549;22;20103;-82
2022/06/29 10:32:05;;;;;;;3.72;1.98;;;;;;;;;;6250074;22;20031;-79
2022/06/29 10:34:33;;;;;;;3.65;1.70;;;;;;;;;;6250083;22;20017;-79
2022/06/29 10:37:07;;;;;;;9.50;1.90;;;;;;;;;;6250698;22;20091;-80
2022/06/29 10:39:49;;;;;;;4.32;1.50;;;;;;;;;;6223085;22;20031;-81
2022/06/29 10:45:09;;;;;;;1.67;1.10;;;;;;;;;;6250961;22;20377;-79
2022/06/29 10:47:39;;;;;;;1.90;1.20;;;;;;;;;;6251021;22;20035;-80
2022/06/29 10:50:24;;;;;;;4.53;1.40;;;;;;;;;;6249807;22;20025;-80
2022/06/29 10:52:53;;;;;;;2.72;1.48;;;;;;;;;;6250610;22;20025;-80
2022/06/29 10:55:21;;;;;;;2.47;1.10;;;;;;;;;;6250417;22;20021;-82
2022/06/29 10:57:49;;;;;;;2.30;1.20;;;;;;;;;;6251051;22;20230;-80
2022/06/29 11:00:16;;;;;;;8.57;1.67;;;;;;;;;;6250863;22;20099;-80
2022/06/29 11:02:46;;;;;;;5.80;1.42;;;;;;;;;;6249977;22;20028;-80
2022/06/29 11:05:14;;;;;;;5.30;1.77;;;;;;;;;;6250348;22;20462;-80
2022/06/29 11:13:21;;;;;;;3.55;1.15;;;;;;;;;;6250520;22;20071;-80
2022/06/29 11:15:49;;;;;;;1.88;1.00;;;;;;;;;;6250129;22;20020;-81
2022/06/29 11:18:18;;;;;;;3.20;1.08;;;;;;;;;;6223008;22;20024;-80
2022/06/29 11:20:49;;;;;;;3.53;1.00;;;;;;;;;;6251439;22;20717;-80
2022/06/29 11:23:17;;;;;;;4.57;1.50;;;;;;;;;;6249962;22;20143;-81
2022/06/29 11:25:49;;;;;;;4.70;1.35;;;;;;;;;;6249573;22;20052;-80
2022/06/29 11:28:17;;;;;;;4.70;1.30;;;;;;;;;;6250080;22;20029;-80
2022/06/29 11:31:00;;;;;;;4.35;1.75;;;;;;;;;;6222375;22;20029;-80
2022/06/29 11:33:28;;;;;;;1.30;1.20;;;;;;;;;;6223650;22;20024;-80
2022/06/29 11:35:57;;;;;;;2.72;1.10;;;;;;;;;;6250619;22;20918;-80
2022/06/29 11:38:29;;;;;;;3.30;1.10;;;;;;;;;;6255890;22;20025;-79
2022/06/29 11:40:56;;;;;;;2.42;1.40;;;;;;;;;;6225622;22;20900;-80
2022/06/29 11:43:45;;;;;;;3.83;1.30;;;;;;;;;;6254244;22;20049;-80
2022/06/29 11:46:19;;;;;;;3.90;1.20;;;;;;;;;;6225242;22;20020;-81
2022/06/29 11:51:47;;;;;;;3.38;1.50;;;;;;;;;;6253604;22;20012;-80
2022/06/29 11:54:15;;;;;;;2.20;1.10;;;;;;;;;;6226014;22;20024;-80
2022/06/29 11:56:45;;;;;;;2.97;1.10;;;;;;;;;;6252829;22;20017;-80
2022/06/29 11:59:16;;;;;;;2.78;1.40;;;;;;;;;;6228388;22;20033;-79
2022/06/29 12:01:51;;;;;;;2.58;1.50;;;;;;;;;;6230953;22;20024;-80
2022/06/29 12:04:29;;;;;;;3.03;1.30;;;;;;;;;;6251112;22;20024;-80
2022/06/29 12:07:04;;;;;;;4.00;1.50;;;;;;;;;;6224717;22;20028;-80
2022/06/29 12:09:31;;;;;;;3.50;1.50;;;;;;;;;;6224132;22;20162;-80
2022/06/29 12:11:58;;;;;;;3.15;1.40;;;;;;;;;;6251448;22;20025;-79
2022/06/29 12:14:27;;;;;;;3.92;1.30;;;;;;;;;;6225653;22;20901;-80
2022/06/29 12:16:55;;;;;;;4.35;1.58;;;;;;;;;;6254371;22;20021;-81
2022/06/29 12:19:23;;;;;;;2.55;1.50;;;;;;;;;;6252812;22;20789;-80
2022/06/29 12:21:50;;;;;;;2.92;1.52;;;;;;;;;;6251874;22;20084;-80
2022/06/29 12:24:18;;;;;;;2.80;1.42;;;;;;;;;;6252700;22;20025;-80
2022/06/29 12:26:46;;;;;;;4.90;1.30;;;;;;;;;;6249211;22;20051;-81
2022/06/29 12:29:13;;;;;;;4.05;1.60;;;;;;;;;;6222865;22;20025;-80
2022/06/29 12:31:43;;;;;;;14.18;1.88;;;;;;;;;;6250715;22;20029;-82
2022/06/29 12:34:13;;;;;;;3.60;1.38;;;;;;;;;;6252481;22;20017;-80
2022/06/29 12:36:56;;;;;;;2.65;1.40;;;;;;;;;;6229003;22;20023;-81
2022/06/29 12:39:23;;;;;;;4.32;1.50;;;;;;;;;;6250814;22;20072;-80
2022/06/29 12:41:50;;;;;;;3.88;1.60;;;;;;;;;;6253116;22;20069;-80
2022/06/29 12:44:17;;;;;;;7.70;1.70;;;;;;;;;;6252283;22;20077;-79
2022/06/29 12:46:46;;;;;;;3.90;1.60;;;;;;;;;;6223112;22;20595;-80
2022/06/29 12:49:13;;;;;;;4.35;1.60;;;;;;;;;;6222420;22;20025;-80
2022/06/29 12:51:41;;;;;;;2.80;1.50;;;;;;;;;;6250602;22;20044;-81
2022/06/29 12:54:17;;;;;;;7.30;1.52;;;;;;;;;;6251351;22;20024;-80
2022/06/29 12:56:45;;;;;;;3.28;1.40;;;;;;;;;;6223495;22;20024;-80
2022/06/29 12:59:12;;;;;;;2.60;1.38;;;;;;;;;;6251435;22;20024;-80
2022/06/29 13:01:40;;;;;;;9.43;1.70;;;;;;;;;;6223356;22;20781;-80
2022/06/29 13:04:07;;;;;;;4.47;1.63;;;;;;;;;;6225363;22;20017;-80
2022/06/29 13:06:36;;;;;;;2.28;1.38;;;;;;;;;;6226422;22;20051;-80
2022/06/29 13:09:04;;;;;;;3.15;1.70;;;;;;;;;;6224834;22;20027;-80
2022/06/29 13:11:34;;;;;;;2.92;1.60;;;;;;;;;;6224004;22;20016;-80
2022/06/29 13:14:01;;;;;;;3.05;1.52;;;;;;;;;;6225734;22;20077;-79
2022/06/29 13:16:31;;;;;;;5.05;1.70;;;;;;;;;;6226279;22;20792;-80
2022/06/29 13:18:58;;;;;;;4.70;1.60;;;;;;;;;;6227396;22;20032;-80
2022/06/29 13:21:26;;;;;;;4.15;1.90;;;;;;;;;;6253000;22;20012;-80
2022/06/29 13:23:57;;;;;;;4.68;1.80;;;;;;;;;;6226913;22;20020;-81
2022/06/29 13:26:24;;;;;;;4.38;1.77;;;;;;;;;;6254355;22;20056;-81
2022/06/29 13:28:51;;;;;;;3.03;1.65;;;;;;;;;;6256195;22;20051;-80
2022/06/29 13:31:18;;;;;;;3.55;1.65;;;;;;;;;;6252105;22;20024;-81
2022/06/29 13:33:45;;;;;;;4.28;1.40;;;;;;;;;;6225403;22;20368;-80
2022/06/29 13:36:16;;;;;;;4.95;1.80;;;;;;;;;;6223665;22;20024;-80
2022/06/29 13:38:43;;;;;;;5.55;1.67;;;;;;;;;;6252649;22;20029;-80
2022/06/29 13:41:10;;;;;;;4.95;1.70;;;;;;;;;;6253363;22;20017;-81
2022/06/29 13:43:38;;;;;;;4.75;1.77;;;;;;;;;;6227142;22;20043;-80
2022/06/29 13:46:07;;;;;;;2.95;1.50;;;;;;;;;;6229514;22;20028;-80
2022/06/29 13:48:34;;;;;;;4.00;1.50;;;;;;;;;;6228828;22;20017;-81
2022/06/29 13:51:01;;;;;;;4.03;1.50;;;;;;;;;;6254181;22;20079;-80
2022/06/29 13:53:29;;;;;;;3.45;1.63;;;;;;;;;;6228678;22;20020;-80
2022/06/29 13:55:56;;;;;;;9.32;1.80;;;;;;;;;;6253341;22;20133;-80
2022/06/29 13:58:23;;;;;;;4.53;1.85;;;;;;;;;;6253297;22;20868;-80
2022/06/29 14:00:50;;;;;;;8.75;1.70;;;;;;;;;;6251768;22;20903;-80
2022/06/29 14:03:19;;;;;;;7.60;2.08;;;;;;;;;;6254011;22;20111;-80
2022/06/29 14:05:46;;;;;;;5.45;1.80;;;;;;;;;;6224905;22;20021;-79
2022/06/29 14:08:14;;;;;;;2.83;1.50;;;;;;;;;;6226097;22;20029;-79
2022/06/29 14:11:02;;;;;;;4.95;1.83;;;;;;;;;;6255275;22;20021;-79
2022/06/29 14:13:29;;;;;;;7.32;1.92;;;;;;;;;;6230095;22;20044;-79
2022/06/29 14:15:57;;;;;;;4.95;1.73;;;;;;;;;;6233033;22;20820;-80
2022/06/29 14:18:24;;;;;;;5.95;1.95;;;;;;;;;;6228239;22;20094;-79
2022/06/29 14:20:51;;;;;;;3.25;1.88;;;;;;;;;;6227646;22;20025;-83
2022/06/29 14:23:18;;;;;;;7.03;1.50;;;;;;;;;;6256600;22;20021;-80
2022/06/29 14:25:49;;;;;;;3.90;1.50;;;;;;;;;;6227292;22;20044;-81
2022/06/29 14:28:17;;;;;;;4.57;1.63;;;;;;;;;;6227113;22;20028;-81
2022/06/29 14:30:44;;;;;;;3.28;1.42;;;;;;;;;;6256855;22;20028;-80
2022/06/29 14:33:11;;;;;;;4.95;1.50;;;;;;;;;;6227392;22;20761;-80
2022/06/29 14:35:38;;;;;;;3.60;1.70;;;;;;;;;;6254588;22;20019;-80
2022/06/29 14:38:06;;;;;;;4.28;1.70;;;;;;;;;;6233067;22;20063;-81
2022/06/29 14:40:33;;;;;;;6.28;1.73;;;;;;;;;;6256686;22;20019;-80
2022/06/29 14:43:01;;;;;;;4.95;1.80;;;;;;;;;;6254783;22;20829;-81
2022/06/29 14:45:28;;;;;;;6.43;1.60;;;;;;;;;;6254936;22;20021;-80
2022/06/29 14:47:55;;;;;;;4.65;1.60;;;;;;;;;;6227359;22;20461;-80
2022/06/29 14:50:23;;;;;;;4.55;1.83;;;;;;;;;;6253672;22;20753;-80
2022/06/29 14:52:52;;;;;;;3.35;1.40;;;;;;;;;;6228750;22;20896;-80
2022/06/29 14:55:19;;;;;;;2.83;1.63;;;;;;;;;;6259316;22;20024;-80
2022/06/29 14:57:49;;;;;;;3.38;1.70;;;;;;;;;;6254894;22;20858;-80
2022/06/29 15:00:17;;;;;;;3.90;1.63;;;;;;;;;;6253872;22;20025;-80
2022/06/29 15:02:44;;;;;;;2.60;1.40;;;;;;;;;;6252144;22;20017;-80
2022/06/29 15:05:12;;;;;;;6.47;1.90;;;;;;;;;;6252890;22;20071;-81
2022/06/29 15:07:39;;;;;;;4.32;1.70;;;;;;;;;;6225559;22;20021;-80
2022/06/29 15:10:06;;;;;;;5.68;1.80;;;;;;;;;;6225414;22;20056;-80
2022/06/29 15:12:33;;;;;;;3.13;1.67;;;;;;;;;;6252486;22;20019;-81
2022/06/29 15:15:01;;;;;;;7.28;1.67;;;;;;;;;;6224590;22;20048;-81
2022/06/29 15:17:28;;;;;;;4.07;1.80;;;;;;;;;;6252485;22;20031;-80
2022/06/29 15:19:57;;;;;;;3.97;1.42;;;;;;;;;;6251168;22;20024;-81
2022/06/29 15:22:25;;;;;;;4.65;1.80;;;;;;;;;;6252114;22;20075;-80